Accueil
METAR-TAF:

METAR-TAF

Aéroports :

Aéroport de Figari Sud Corse

Figari, France

latitude: 41-30N, longitude: 009-06E, altitude: 26 m

Observation

Le bulletin a été fait il y a 13 minutes, à 05:00 UTC
Vent 2 kt de direction variable
Température 20°C
Humidité 83%
Pression 1012 hPa
Visibilité 10 km ou plus
pas de nuages en-dessous de 1500 mètres et pas de cumulonimbus.

METAR: LFKF 300500Z AUTO VRB02KT CAVOK 20/17 Q1012 NOSIG

Heure: 07:13 (05:13 UTC)

Prévision

Le bulletin a été fait il y a 3 heures et 13 minutes, à 02:00 UTC
Prévision valable du 30 à 03 UTC au 01 à 03 UTC
Vent 3 kt de direction variable
Visibilité 10 km ou plus
pas de nuages en-dessous de 1500 mètres et pas de cumulonimbus.
Evoluant progressivement
du 30 à 08 UTC au 30 à 10 UTC
Vent 10 kt de est

TAF: LFKF 300200Z 3003/0103 VRB03KT CAVOK BECMG 3008/3010 08010KT

Observations et prévisions météorologiques de plus de 4000 aéroports (messages METAR et TAF).

Les stations disponibles sont représentées par des disques jaunes et rouges sur la carte.

Passer la souris dessus pour voir le nom de la station.

Cliquer dessus pour voir les observations et prévisions météorologiques.

Pour changer de carte: cliquez sur les boutons verts avec une croix noire pour zoomer, sur le bouton vert avec un tiret pour effectuer un zoom arrière, ou sur les flèches vertes pour les cartes adjacentes.


METAR-TAF: